Terminal Aerodrome Forecast
Issued by NWS Grand Rapids, MI

Home | Current Version | Previous Version | Text Only | Print | Product List | Glossary On
Versions: 1 2 3 4 5 6 7 8 9 10 11 12 13 14 15 16 17 18 19 20 21 22 23 24
251
FTUS43 KGRR 180640 AAA
TAFGRR
TAF AMD
KGRR 180640Z 1807/1906 19008KT 3SM -SHRA BR BKN006
     FM181000 22005KT 1 1/2SM -DZ BR OVC005
     FM182300 32015G23KT 3SM -RASN BR OVC010
     FM190100 32016G24KT 6SM -RASN OVC025=

USA.gov is the U.S. government's official web portal to all federal, state and local government web resources and services.